sensor_id;sensor_type;location;lat;lon;timestamp;P1;durP1;ratioP1;P2;durP2;ratioP2
39022;SDS011;25908;51.984;5.928;2023-05-07T00:02:01;7.22;;;5.35;;
39022;SDS011;25908;51.984;5.928;2023-05-07T00:04:28;6.03;;;5.13;;
39022;SDS011;25908;51.984;5.928;2023-05-07T00:07:00;6.13;;;4.78;;
39022;SDS011;25908;51.984;5.928;2023-05-07T00:09:26;7.45;;;5.40;;
39022;SDS011;25908;51.984;5.928;2023-05-07T00:11:52;6.20;;;5.07;;
39022;SDS011;25908;51.984;5.928;2023-05-07T00:14:17;6.90;;;5.47;;
39022;SDS011;25908;51.984;5.928;2023-05-07T00:16:43;7.07;;;5.43;;
39022;SDS011;25908;51.984;5.928;2023-05-07T00:19:09;6.93;;;5.25;;
39022;SDS011;25908;51.984;5.928;2023-05-07T00:21:34;7.03;;;5.70;;
39022;SDS011;25908;51.984;5.928;2023-05-07T00:24:00;6.95;;;5.50;;
39022;SDS011;25908;51.984;5.928;2023-05-07T00:26:25;8.30;;;5.85;;
39022;SDS011;25908;51.984;5.928;2023-05-07T00:28:51;7.45;;;5.90;;
39022;SDS011;25908;51.984;5.928;2023-05-07T00:31:16;8.20;;;6.22;;
39022;SDS011;25908;51.984;5.928;2023-05-07T00:33:42;8.00;;;5.00;;
39022;SDS011;25908;51.984;5.928;2023-05-07T00:36:07;8.93;;;5.75;;
39022;SDS011;25908;51.984;5.928;2023-05-07T00:38:33;7.63;;;5.90;;
39022;SDS011;25908;51.984;5.928;2023-05-07T00:40:59;8.27;;;6.25;;
39022;SDS011;25908;51.984;5.928;2023-05-07T00:43:24;8.02;;;5.70;;
39022;SDS011;25908;51.984;5.928;2023-05-07T00:45:50;6.38;;;4.97;;
39022;SDS011;25908;51.984;5.928;2023-05-07T00:48:16;7.07;;;5.65;;
39022;SDS011;25908;51.984;5.928;2023-05-07T00:50:42;7.45;;;5.82;;
39022;SDS011;25908;51.984;5.928;2023-05-07T00:53:08;8.70;;;6.15;;
39022;SDS011;25908;51.984;5.928;2023-05-07T00:55:34;8.07;;;5.63;;
39022;SDS011;25908;51.984;5.928;2023-05-07T00:58:00;7.93;;;6.07;;
39022;SDS011;25908;51.984;5.928;2023-05-07T01:00:26;8.85;;;6.30;;
39022;SDS011;25908;51.984;5.928;2023-05-07T01:02:52;8.63;;;6.07;;
39022;SDS011;25908;51.984;5.928;2023-05-07T01:05:18;7.40;;;5.80;;
39022;SDS011;25908;51.984;5.928;2023-05-07T01:07:45;7.72;;;5.90;;
39022;SDS011;25908;51.984;5.928;2023-05-07T01:10:11;10.30;;;6.18;;
39022;SDS011;25908;51.984;5.928;2023-05-07T01:12:37;8.75;;;6.13;;
39022;SDS011;25908;51.984;5.928;2023-05-07T01:15:05;8.35;;;6.07;;
39022;SDS011;25908;51.984;5.928;2023-05-07T01:17:37;8.75;;;5.78;;
39022;SDS011;25908;51.984;5.928;2023-05-07T01:20:05;8.35;;;5.97;;
39022;SDS011;25908;51.984;5.928;2023-05-07T01:22:32;7.32;;;6.30;;
39022;SDS011;25908;51.984;5.928;2023-05-07T01:24:59;11.00;;;6.80;;
39022;SDS011;25908;51.984;5.928;2023-05-07T01:27:26;10.43;;;7.30;;
39022;SDS011;25908;51.984;5.928;2023-05-07T01:29:52;8.27;;;6.65;;
39022;SDS011;25908;51.984;5.928;2023-05-07T01:32:18;10.18;;;7.70;;
39022;SDS011;25908;51.984;5.928;2023-05-07T01:34:50;7.88;;;6.72;;
39022;SDS011;25908;51.984;5.928;2023-05-07T01:37:17;8.27;;;6.60;;
39022;SDS011;25908;51.984;5.928;2023-05-07T01:39:43;10.02;;;6.97;;
39022;SDS011;25908;51.984;5.928;2023-05-07T01:42:09;8.98;;;7.35;;
39022;SDS011;25908;51.984;5.928;2023-05-07T01:44:35;9.23;;;7.45;;
39022;SDS011;25908;51.984;5.928;2023-05-07T01:47:01;10.07;;;7.38;;
39022;SDS011;25908;51.984;5.928;2023-05-07T01:49:27;9.10;;;8.05;;
39022;SDS011;25908;51.984;5.928;2023-05-07T01:51:53;9.18;;;7.22;;
39022;SDS011;25908;51.984;5.928;2023-05-07T01:54:19;9.05;;;7.10;;
39022;SDS011;25908;51.984;5.928;2023-05-07T01:56:45;9.60;;;7.72;;
39022;SDS011;25908;51.984;5.928;2023-05-07T01:59:12;8.55;;;7.45;;
39022;SDS011;25908;51.984;5.928;2023-05-07T02:01:38;10.25;;;7.40;;
39022;SDS011;25908;51.984;5.928;2023-05-07T02:04:04;9.07;;;7.53;;
39022;SDS011;25908;51.984;5.928;2023-05-07T02:06:29;10.88;;;8.05;;
39022;SDS011;25908;51.984;5.928;2023-05-07T02:08:56;9.45;;;7.80;;
39022;SDS011;25908;51.984;5.928;2023-05-07T02:11:21;9.52;;;8.25;;
39022;SDS011;25908;51.984;5.928;2023-05-07T02:13:47;11.27;;;8.30;;
39022;SDS011;25908;51.984;5.928;2023-05-07T02:16:12;8.88;;;7.72;;
39022;SDS011;25908;51.984;5.928;2023-05-07T02:18:39;9.60;;;8.10;;
39022;SDS011;25908;51.984;5.928;2023-05-07T02:21:04;9.70;;;8.70;;
39022;SDS011;25908;51.984;5.928;2023-05-07T02:23:30;9.48;;;8.48;;
39022;SDS011;25908;51.984;5.928;2023-05-07T02:25:56;10.50;;;8.73;;
39022;SDS011;25908;51.984;5.928;2023-05-07T02:28:21;9.90;;;8.45;;
39022;SDS011;25908;51.984;5.928;2023-05-07T02:30:47;9.65;;;8.23;;
39022;SDS011;25908;51.984;5.928;2023-05-07T02:33:12;10.43;;;8.52;;
39022;SDS011;25908;51.984;5.928;2023-05-07T02:35:38;10.05;;;8.32;;
39022;SDS011;25908;51.984;5.928;2023-05-07T02:38:04;10.43;;;8.27;;
39022;SDS011;25908;51.984;5.928;2023-05-07T02:40:30;10.50;;;8.60;;
39022;SDS011;25908;51.984;5.928;2023-05-07T02:42:58;11.05;;;8.43;;
39022;SDS011;25908;51.984;5.928;2023-05-07T02:45:24;12.38;;;8.95;;
39022;SDS011;25908;51.984;5.928;2023-05-07T02:47:50;12.88;;;8.93;;
39022;SDS011;25908;51.984;5.928;2023-05-07T02:50:15;12.43;;;7.85;;
39022;SDS011;25908;51.984;5.928;2023-05-07T02:52:41;10.77;;;9.57;;
39022;SDS011;25908;51.984;5.928;2023-05-07T02:55:06;10.27;;;8.82;;
39022;SDS011;25908;51.984;5.928;2023-05-07T02:57:32;10.63;;;8.20;;
39022;SDS011;25908;51.984;5.928;2023-05-07T02:59:58;10.32;;;8.90;;
39022;SDS011;25908;51.984;5.928;2023-05-07T03:02:24;10.18;;;8.60;;
39022;SDS011;25908;51.984;5.928;2023-05-07T03:04:49;10.10;;;8.25;;
39022;SDS011;25908;51.984;5.928;2023-05-07T03:07:15;11.10;;;8.15;;
39022;SDS011;25908;51.984;5.928;2023-05-07T03:09:40;10.23;;;8.32;;
39022;SDS011;25908;51.984;5.928;2023-05-07T03:12:06;10.68;;;8.48;;
39022;SDS011;25908;51.984;5.928;2023-05-07T03:14:32;10.75;;;8.63;;
39022;SDS011;25908;51.984;5.928;2023-05-07T03:16:57;10.68;;;8.30;;
39022;SDS011;25908;51.984;5.928;2023-05-07T03:19:23;9.88;;;8.88;;
39022;SDS011;25908;51.984;5.928;2023-05-07T03:21:48;10.50;;;8.55;;
39022;SDS011;25908;51.984;5.928;2023-05-07T03:24:14;10.52;;;8.90;;
39022;SDS011;25908;51.984;5.928;2023-05-07T03:26:40;11.68;;;9.60;;
39022;SDS011;25908;51.984;5.928;2023-05-07T03:29:05;12.10;;;9.32;;
39022;SDS011;25908;51.984;5.928;2023-05-07T03:31:31;10.43;;;8.07;;
39022;SDS011;25908;51.984;5.928;2023-05-07T03:33:56;11.30;;;8.95;;
39022;SDS011;25908;51.984;5.928;2023-05-07T03:36:22;10.68;;;8.70;;
39022;SDS011;25908;51.984;5.928;2023-05-07T03:38:48;12.20;;;9.23;;
39022;SDS011;25908;51.984;5.928;2023-05-07T03:41:15;10.63;;;8.77;;
39022;SDS011;25908;51.984;5.928;2023-05-07T03:43:40;10.82;;;9.55;;
39022;SDS011;25908;51.984;5.928;2023-05-07T03:46:06;11.35;;;9.02;;
39022;SDS011;25908;51.984;5.928;2023-05-07T03:48:32;11.88;;;9.38;;
39022;SDS011;25908;51.984;5.928;2023-05-07T03:50:58;11.45;;;9.98;;
39022;SDS011;25908;51.984;5.928;2023-05-07T03:53:24;10.52;;;9.07;;
39022;SDS011;25908;51.984;5.928;2023-05-07T03:55:49;12.55;;;10.13;;
39022;SDS011;25908;51.984;5.928;2023-05-07T03:58:15;12.30;;;9.35;;
39022;SDS011;25908;51.984;5.928;2023-05-07T04:00:41;11.88;;;9.90;;
39022;SDS011;25908;51.984;5.928;2023-05-07T04:03:07;13.30;;;10.10;;
39022;SDS011;25908;51.984;5.928;2023-05-07T04:05:33;13.43;;;10.55;;
39022;SDS011;25908;51.984;5.928;2023-05-07T04:07:59;11.13;;;9.95;;
39022;SDS011;25908;51.984;5.928;2023-05-07T04:10:25;13.38;;;10.52;;
39022;SDS011;25908;51.984;5.928;2023-05-07T04:12:51;12.63;;;10.80;;
39022;SDS011;25908;51.984;5.928;2023-05-07T04:15:16;13.38;;;11.35;;
39022;SDS011;25908;51.984;5.928;2023-05-07T04:17:42;12.23;;;10.80;;
39022;SDS011;25908;51.984;5.928;2023-05-07T04:20:15;13.63;;;11.50;;
39022;SDS011;25908;51.984;5.928;2023-05-07T04:22:41;15.20;;;11.88;;
39022;SDS011;25908;51.984;5.928;2023-05-07T04:25:08;13.05;;;11.65;;
39022;SDS011;25908;51.984;5.928;2023-05-07T04:27:37;15.52;;;12.90;;
39022;SDS011;25908;51.984;5.928;2023-05-07T04:30:02;14.60;;;12.13;;
39022;SDS011;25908;51.984;5.928;2023-05-07T04:32:29;13.80;;;12.20;;
39022;SDS011;25908;51.984;5.928;2023-05-07T04:34:55;14.43;;;12.18;;
39022;SDS011;25908;51.984;5.928;2023-05-07T04:37:21;14.35;;;12.93;;
39022;SDS011;25908;51.984;5.928;2023-05-07T04:39:47;13.63;;;12.20;;
39022;SDS011;25908;51.984;5.928;2023-05-07T04:42:16;14.02;;;12.40;;
39022;SDS011;25908;51.984;5.928;2023-05-07T04:44:43;14.85;;;13.35;;
39022;SDS011;25908;51.984;5.928;2023-05-07T04:47:09;14.25;;;12.85;;
39022;SDS011;25908;51.984;5.928;2023-05-07T04:49:35;16.25;;;13.85;;
39022;SDS011;25908;51.984;5.928;2023-05-07T04:52:00;14.07;;;12.68;;
39022;SDS011;25908;51.984;5.928;2023-05-07T04:54:26;14.02;;;12.63;;
39022;SDS011;25908;51.984;5.928;2023-05-07T04:56:51;14.75;;;12.70;;
39022;SDS011;25908;51.984;5.928;2023-05-07T04:59:17;15.73;;;14.15;;
39022;SDS011;25908;51.984;5.928;2023-05-07T05:01:43;15.82;;;14.23;;
39022;SDS011;25908;51.984;5.928;2023-05-07T05:04:08;18.35;;;13.68;;
39022;SDS011;25908;51.984;5.928;2023-05-07T05:06:35;14.98;;;13.30;;
39022;SDS011;25908;51.984;5.928;2023-05-07T05:09:00;14.85;;;13.40;;
39022;SDS011;25908;51.984;5.928;2023-05-07T05:11:26;14.48;;;12.98;;
39022;SDS011;25908;51.984;5.928;2023-05-07T05:13:52;14.90;;;13.30;;
39022;SDS011;25908;51.984;5.928;2023-05-07T05:16:17;16.10;;;14.30;;
39022;SDS011;25908;51.984;5.928;2023-05-07T05:18:43;15.35;;;13.80;;
39022;SDS011;25908;51.984;5.928;2023-05-07T05:21:08;15.52;;;13.93;;
39022;SDS011;25908;51.984;5.928;2023-05-07T05:23:34;14.48;;;12.32;;
39022;SDS011;25908;51.984;5.928;2023-05-07T05:25:59;14.40;;;13.00;;
39022;SDS011;25908;51.984;5.928;2023-05-07T05:28:25;14.52;;;12.85;;
39022;SDS011;25908;51.984;5.928;2023-05-07T05:30:52;14.88;;;13.27;;
39022;SDS011;25908;51.984;5.928;2023-05-07T05:33:18;15.35;;;13.75;;
39022;SDS011;25908;51.984;5.928;2023-05-07T05:35:43;15.48;;;13.88;;
39022;SDS011;25908;51.984;5.928;2023-05-07T05:38:09;17.50;;;13.60;;
39022;SDS011;25908;51.984;5.928;2023-05-07T05:40:34;16.20;;;13.25;;
39022;SDS011;25908;51.984;5.928;2023-05-07T05:43:00;16.10;;;14.23;;
39022;SDS011;25908;51.984;5.928;2023-05-07T05:45:25;14.52;;;13.02;;
39022;SDS011;25908;51.984;5.928;2023-05-07T05:47:51;15.48;;;13.88;;
39022;SDS011;25908;51.984;5.928;2023-05-07T05:50:16;13.98;;;12.55;;
39022;SDS011;25908;51.984;5.928;2023-05-07T05:52:42;16.02;;;14.27;;
39022;SDS011;25908;51.984;5.928;2023-05-07T05:55:08;14.90;;;13.27;;
39022;SDS011;25908;51.984;5.928;2023-05-07T05:57:34;16.52;;;13.68;;
39022;SDS011;25908;51.984;5.928;2023-05-07T06:00:00;14.45;;;12.98;;
39022;SDS011;25908;51.984;5.928;2023-05-07T06:02:27;15.15;;;13.55;;
39022;SDS011;25908;51.984;5.928;2023-05-07T06:04:53;15.13;;;13.52;;
39022;SDS011;25908;51.984;5.928;2023-05-07T06:07:18;15.15;;;13.65;;
39022;SDS011;25908;51.984;5.928;2023-05-07T06:09:44;16.08;;;11.82;;
39022;SDS011;25908;51.984;5.928;2023-05-07T06:12:10;15.07;;;13.52;;
39022;SDS011;25908;51.984;5.928;2023-05-07T06:14:35;14.95;;;13.35;;
39022;SDS011;25908;51.984;5.928;2023-05-07T06:17:01;16.80;;;14.25;;
39022;SDS011;25908;51.984;5.928;2023-05-07T06:19:26;14.80;;;13.30;;
39022;SDS011;25908;51.984;5.928;2023-05-07T06:21:53;14.35;;;12.88;;
39022;SDS011;25908;51.984;5.928;2023-05-07T06:24:19;14.55;;;13.05;;
39022;SDS011;25908;51.984;5.928;2023-05-07T06:26:45;15.02;;;13.52;;
39022;SDS011;25908;51.984;5.928;2023-05-07T06:29:11;16.25;;;14.20;;
39022;SDS011;25908;51.984;5.928;2023-05-07T06:31:36;15.63;;;13.98;;
39022;SDS011;25908;51.984;5.928;2023-05-07T06:34:02;17.20;;;14.73;;
39022;SDS011;25908;51.984;5.928;2023-05-07T06:36:28;15.65;;;13.88;;
39022;SDS011;25908;51.984;5.928;2023-05-07T06:38:53;15.18;;;13.57;;
39022;SDS011;25908;51.984;5.928;2023-05-07T06:41:19;15.80;;;14.20;;
39022;SDS011;25908;51.984;5.928;2023-05-07T06:43:45;15.18;;;13.55;;
39022;SDS011;25908;51.984;5.928;2023-05-07T06:46:11;15.48;;;13.82;;
39022;SDS011;25908;51.984;5.928;2023-05-07T06:48:36;15.60;;;14.02;;
39022;SDS011;25908;51.984;5.928;2023-05-07T06:51:02;15.93;;;14.10;;
39022;SDS011;25908;51.984;5.928;2023-05-07T06:53:28;17.38;;;15.60;;
39022;SDS011;25908;51.984;5.928;2023-05-07T06:55:55;16.48;;;14.55;;
39022;SDS011;25908;51.984;5.928;2023-05-07T06:58:21;16.83;;;15.13;;
39022;SDS011;25908;51.984;5.928;2023-05-07T07:00:47;19.15;;;17.15;;
39022;SDS011;25908;51.984;5.928;2023-05-07T07:03:13;16.98;;;15.32;;
39022;SDS011;25908;51.984;5.928;2023-05-07T07:05:39;17.98;;;16.08;;
39022;SDS011;25908;51.984;5.928;2023-05-07T07:08:06;17.15;;;15.35;;
39022;SDS011;25908;51.984;5.928;2023-05-07T07:10:31;19.20;;;17.23;;
39022;SDS011;25908;51.984;5.928;2023-05-07T07:12:57;18.02;;;16.10;;
39022;SDS011;25908;51.984;5.928;2023-05-07T07:15:22;18.40;;;16.48;;
39022;SDS011;25908;51.984;5.928;2023-05-07T07:17:49;17.25;;;15.43;;
39022;SDS011;25908;51.984;5.928;2023-05-07T07:20:15;18.35;;;15.95;;
39022;SDS011;25908;51.984;5.928;2023-05-07T07:22:41;17.88;;;15.98;;
39022;SDS011;25908;51.984;5.928;2023-05-07T07:25:07;20.65;;;17.90;;
39022;SDS011;25908;51.984;5.928;2023-05-07T07:27:33;18.95;;;16.90;;
39022;SDS011;25908;51.984;5.928;2023-05-07T07:29:58;18.02;;;16.05;;
39022;SDS011;25908;51.984;5.928;2023-05-07T07:32:24;20.25;;;17.60;;
39022;SDS011;25908;51.984;5.928;2023-05-07T07:34:50;18.30;;;16.40;;
39022;SDS011;25908;51.984;5.928;2023-05-07T07:37:16;17.92;;;15.73;;
39022;SDS011;25908;51.984;5.928;2023-05-07T07:39:41;17.55;;;15.15;;
39022;SDS011;25908;51.984;5.928;2023-05-07T07:42:07;19.58;;;17.30;;
39022;SDS011;25908;51.984;5.928;2023-05-07T07:44:32;17.73;;;15.90;;
39022;SDS011;25908;51.984;5.928;2023-05-07T07:46:58;17.60;;;15.77;;
39022;SDS011;25908;51.984;5.928;2023-05-07T07:49:24;19.50;;;15.30;;
39022;SDS011;25908;51.984;5.928;2023-05-07T07:51:49;20.75;;;15.93;;
39022;SDS011;25908;51.984;5.928;2023-05-07T07:54:16;18.27;;;16.20;;
39022;SDS011;25908;51.984;5.928;2023-05-07T07:56:41;20.85;;;17.17;;
39022;SDS011;25908;51.984;5.928;2023-05-07T07:59:07;18.10;;;16.02;;
39022;SDS011;25908;51.984;5.928;2023-05-07T08:01:32;18.80;;;14.82;;
39022;SDS011;25908;51.984;5.928;2023-05-07T08:03:58;21.85;;;16.13;;
39022;SDS011;25908;51.984;5.928;2023-05-07T08:06:24;16.25;;;14.55;;
39022;SDS011;25908;51.984;5.928;2023-05-07T08:08:50;18.55;;;16.45;;
39022;SDS011;25908;51.984;5.928;2023-05-07T08:11:16;18.35;;;15.48;;
39022;SDS011;25908;51.984;5.928;2023-05-07T08:13:42;21.90;;;15.73;;
39022;SDS011;25908;51.984;5.928;2023-05-07T08:16:08;17.55;;;15.02;;
39022;SDS011;25908;51.984;5.928;2023-05-07T08:18:33;17.67;;;15.88;;
39022;SDS011;25908;51.984;5.928;2023-05-07T08:20:59;17.73;;;15.93;;
39022;SDS011;25908;51.984;5.928;2023-05-07T08:23:26;19.08;;;15.98;;
39022;SDS011;25908;51.984;5.928;2023-05-07T08:25:52;18.60;;;15.90;;
39022;SDS011;25908;51.984;5.928;2023-05-07T08:28:18;17.83;;;15.38;;
39022;SDS011;25908;51.984;5.928;2023-05-07T08:30:44;17.40;;;15.10;;
39022;SDS011;25908;51.984;5.928;2023-05-07T08:33:10;18.58;;;15.55;;
39022;SDS011;25908;51.984;5.928;2023-05-07T08:35:36;20.63;;;16.60;;
39022;SDS011;25908;51.984;5.928;2023-05-07T08:38:01;17.40;;;15.18;;
39022;SDS011;25908;51.984;5.928;2023-05-07T08:40:27;17.45;;;15.60;;
39022;SDS011;25908;51.984;5.928;2023-05-07T08:42:53;17.80;;;15.00;;
39022;SDS011;25908;51.984;5.928;2023-05-07T08:45:19;17.83;;;15.15;;
39022;SDS011;25908;51.984;5.928;2023-05-07T08:47:46;17.10;;;15.38;;
39022;SDS011;25908;51.984;5.928;2023-05-07T08:50:15;18.35;;;16.27;;
39022;SDS011;25908;51.984;5.928;2023-05-07T08:52:40;16.50;;;14.57;;
39022;SDS011;25908;51.984;5.928;2023-05-07T08:55:07;19.38;;;16.13;;
39022;SDS011;25908;51.984;5.928;2023-05-07T08:57:33;17.25;;;15.15;;
39022;SDS011;25908;51.984;5.928;2023-05-07T09:00:01;18.00;;;14.82;;
39022;SDS011;25908;51.984;5.928;2023-05-07T09:02:28;17.27;;;14.82;;
39022;SDS011;25908;51.984;5.928;2023-05-07T09:04:54;17.70;;;15.57;;
39022;SDS011;25908;51.984;5.928;2023-05-07T09:07:20;16.95;;;14.15;;
39022;SDS011;25908;51.984;5.928;2023-05-07T09:09:46;18.73;;;15.25;;
39022;SDS011;25908;51.984;5.928;2023-05-07T09:12:11;18.55;;;15.90;;
39022;SDS011;25908;51.984;5.928;2023-05-07T09:14:37;19.38;;;14.85;;
39022;SDS011;25908;51.984;5.928;2023-05-07T09:17:04;16.42;;;14.52;;
39022;SDS011;25908;51.984;5.928;2023-05-07T09:19:30;16.50;;;14.38;;
39022;SDS011;25908;51.984;5.928;2023-05-07T09:21:59;18.13;;;16.17;;
39022;SDS011;25908;51.984;5.928;2023-05-07T09:24:25;17.05;;;15.27;;
39022;SDS011;25908;51.984;5.928;2023-05-07T09:26:53;16.65;;;14.85;;
39022;SDS011;25908;51.984;5.928;2023-05-07T09:29:20;18.75;;;15.15;;
39022;SDS011;25908;51.984;5.928;2023-05-07T09:31:46;16.65;;;14.77;;
39022;SDS011;25908;51.984;5.928;2023-05-07T09:34:11;16.73;;;14.93;;
39022;SDS011;25908;51.984;5.928;2023-05-07T09:36:37;14.70;;;12.93;;
39022;SDS011;25908;51.984;5.928;2023-05-07T09:39:02;16.15;;;14.13;;
39022;SDS011;25908;51.984;5.928;2023-05-07T09:41:30;14.95;;;13.20;;
39022;SDS011;25908;51.984;5.928;2023-05-07T09:43:57;17.02;;;13.13;;
39022;SDS011;25908;51.984;5.928;2023-05-07T09:46:30;14.02;;;12.50;;
39022;SDS011;25908;51.984;5.928;2023-05-07T09:48:58;14.60;;;12.55;;
39022;SDS011;25908;51.984;5.928;2023-05-07T09:51:47;15.25;;;12.70;;
39022;SDS011;25908;51.984;5.928;2023-05-07T09:54:15;13.82;;;11.45;;
39022;SDS011;25908;51.984;5.928;2023-05-07T09:56:45;12.63;;;11.35;;
39022;SDS011;25908;51.984;5.928;2023-05-07T09:59:13;15.93;;;13.23;;
39022;SDS011;25908;51.984;5.928;2023-05-07T10:01:41;14.70;;;11.57;;
39022;SDS011;25908;51.984;5.928;2023-05-07T10:04:07;14.98;;;12.23;;
39022;SDS011;25908;51.984;5.928;2023-05-07T10:06:34;15.90;;;13.38;;
39022;SDS011;25908;51.984;5.928;2023-05-07T10:09:01;12.48;;;10.75;;
39022;SDS011;25908;51.984;5.928;2023-05-07T10:11:31;13.67;;;12.27;;
39022;SDS011;25908;51.984;5.928;2023-05-07T10:13:58;14.50;;;11.43;;
39022;SDS011;25908;51.984;5.928;2023-05-07T10:16:26;14.23;;;12.27;;
39022;SDS011;25908;51.984;5.928;2023-05-07T10:18:54;14.88;;;12.50;;
39022;SDS011;25908;51.984;5.928;2023-05-07T10:21:20;14.48;;;12.60;;
39022;SDS011;25908;51.984;5.928;2023-05-07T10:23:53;13.38;;;11.55;;
39022;SDS011;25908;51.984;5.928;2023-05-07T10:26:44;14.32;;;12.23;;
39022;SDS011;25908;51.984;5.928;2023-05-07T10:34:58;12.52;;;11.23;;
39022;SDS011;25908;51.984;5.928;2023-05-07T10:37:27;11.95;;;10.70;;
39022;SDS011;25908;51.984;5.928;2023-05-07T10:39:54;12.27;;;10.93;;
39022;SDS011;25908;51.984;5.928;2023-05-07T10:42:20;14.02;;;11.55;;
39022;SDS011;25908;51.984;5.928;2023-05-07T10:44:45;12.50;;;10.70;;
39022;SDS011;25908;51.984;5.928;2023-05-07T10:47:12;11.55;;;10.35;;
39022;SDS011;25908;51.984;5.928;2023-05-07T10:52:17;10.27;;;8.38;;
39022;SDS011;25908;51.984;5.928;2023-05-07T10:54:44;9.57;;;8.57;;
39022;SDS011;25908;51.984;5.928;2023-05-07T11:00:00;10.20;;;9.13;;
39022;SDS011;25908;51.984;5.928;2023-05-07T11:03:04;13.13;;;9.45;;
39022;SDS011;25908;51.984;5.928;2023-05-07T11:05:28;9.30;;;8.40;;
39022;SDS011;25908;51.984;5.928;2023-05-07T11:07:55;10.30;;;8.48;;
39022;SDS011;25908;51.984;5.928;2023-05-07T11:10:22;10.38;;;8.40;;
39022;SDS011;25908;51.984;5.928;2023-05-07T11:13:08;11.38;;;9.10;;
39022;SDS011;25908;51.984;5.928;2023-05-07T11:15:35;11.18;;;9.15;;
39022;SDS011;25908;51.984;5.928;2023-05-07T11:18:02;11.23;;;9.77;;
39022;SDS011;25908;51.984;5.928;2023-05-07T11:20:47;10.18;;;9.15;;
39022;SDS011;25908;51.984;5.928;2023-05-07T11:26:02;10.25;;;9.15;;
39022;SDS011;25908;51.984;5.928;2023-05-07T11:28:29;10.88;;;8.88;;
39022;SDS011;25908;51.984;5.928;2023-05-07T11:30:56;13.32;;;10.52;;
39022;SDS011;25908;51.984;5.928;2023-05-07T11:33:23;11.05;;;9.40;;
39022;SDS011;25908;51.984;5.928;2023-05-07T11:35:53;11.77;;;9.80;;
39022;SDS011;25908;51.984;5.928;2023-05-07T11:38:19;10.25;;;8.98;;
39022;SDS011;25908;51.984;5.928;2023-05-07T11:40:52;10.00;;;8.80;;
39022;SDS011;25908;51.984;5.928;2023-05-07T11:43:18;10.80;;;8.70;;
39022;SDS011;25908;51.984;5.928;2023-05-07T11:45:44;12.02;;;9.85;;
39022;SDS011;25908;51.984;5.928;2023-05-07T11:48:11;11.25;;;10.05;;
39022;SDS011;25908;51.984;5.928;2023-05-07T11:53:20;8.52;;;7.63;;
39022;SDS011;25908;51.984;5.928;2023-05-07T11:55:51;10.27;;;7.45;;
39022;SDS011;25908;51.984;5.928;2023-05-07T11:58:20;8.40;;;7.50;;
39022;SDS011;25908;51.984;5.928;2023-05-07T12:00:50;8.77;;;7.10;;
39022;SDS011;25908;51.984;5.928;2023-05-07T12:03:19;9.85;;;8.35;;
39022;SDS011;25908;51.984;5.928;2023-05-07T12:05:45;12.05;;;8.60;;
39022;SDS011;25908;51.984;5.928;2023-05-07T12:08:15;9.65;;;8.30;;
39022;SDS011;25908;51.984;5.928;2023-05-07T12:10:41;10.18;;;8.73;;
39022;SDS011;25908;51.984;5.928;2023-05-07T12:13:24;12.95;;;7.93;;
39022;SDS011;25908;51.984;5.928;2023-05-07T12:15:51;9.75;;;7.50;;
39022;SDS011;25908;51.984;5.928;2023-05-07T12:18:17;10.02;;;8.43;;
39022;SDS011;25908;51.984;5.928;2023-05-07T12:20:43;9.80;;;7.82;;
39022;SDS011;25908;51.984;5.928;2023-05-07T12:23:10;9.32;;;7.32;;
39022;SDS011;25908;51.984;5.928;2023-05-07T12:25:36;8.48;;;6.93;;
39022;SDS011;25908;51.984;5.928;2023-05-07T12:28:08;8.43;;;7.32;;
39022;SDS011;25908;51.984;5.928;2023-05-07T12:30:42;9.98;;;7.05;;
39022;SDS011;25908;51.984;5.928;2023-05-07T12:33:12;8.35;;;7.15;;
39022;SDS011;25908;51.984;5.928;2023-05-07T12:35:48;9.00;;;6.15;;
39022;SDS011;25908;51.984;5.928;2023-05-07T12:38:15;8.65;;;6.15;;
39022;SDS011;25908;51.984;5.928;2023-05-07T12:43:07;7.80;;;6.90;;
39022;SDS011;25908;51.984;5.928;2023-05-07T12:45:43;9.02;;;7.15;;
39022;SDS011;25908;51.984;5.928;2023-05-07T12:48:10;8.55;;;6.82;;
39022;SDS011;25908;51.984;5.928;2023-05-07T12:50:35;9.18;;;7.60;;
39022;SDS011;25908;51.984;5.928;2023-05-07T12:53:04;10.63;;;7.40;;
39022;SDS011;25908;51.984;5.928;2023-05-07T12:55:31;10.25;;;7.85;;
39022;SDS011;25908;51.984;5.928;2023-05-07T12:57:57;8.90;;;6.95;;
39022;SDS011;25908;51.984;5.928;2023-05-07T13:00:36;9.55;;;7.35;;
39022;SDS011;25908;51.984;5.928;2023-05-07T13:03:02;11.75;;;7.32;;
39022;SDS011;25908;51.984;5.928;2023-05-07T13:05:28;9.45;;;6.72;;
39022;SDS011;25908;51.984;5.928;2023-05-07T13:07:56;8.18;;;6.05;;
39022;SDS011;25908;51.984;5.928;2023-05-07T13:10:22;7.03;;;6.32;;
39022;SDS011;25908;51.984;5.928;2023-05-07T13:12:49;8.65;;;6.60;;
39022;SDS011;25908;51.984;5.928;2023-05-07T13:15:15;8.55;;;6.82;;
39022;SDS011;25908;51.984;5.928;2023-05-07T13:17:41;8.32;;;6.72;;
39022;SDS011;25908;51.984;5.928;2023-05-07T13:20:08;8.43;;;6.80;;
39022;SDS011;25908;51.984;5.928;2023-05-07T13:22:34;9.13;;;6.82;;
39022;SDS011;25908;51.984;5.928;2023-05-07T13:25:00;8.65;;;6.30;;
39022;SDS011;25908;51.984;5.928;2023-05-07T13:27:26;8.93;;;7.43;;
39022;SDS011;25908;51.984;5.928;2023-05-07T13:29:51;9.55;;;7.00;;
39022;SDS011;25908;51.984;5.928;2023-05-07T13:32:17;10.07;;;7.53;;
39022;SDS011;25908;51.984;5.928;2023-05-07T13:34:42;8.05;;;6.13;;
39022;SDS011;25908;51.984;5.928;2023-05-07T13:37:08;10.07;;;6.82;;
39022;SDS011;25908;51.984;5.928;2023-05-07T13:39:34;9.00;;;6.60;;
39022;SDS011;25908;51.984;5.928;2023-05-07T13:41:59;7.78;;;6.35;;
39022;SDS011;25908;51.984;5.928;2023-05-07T13:44:25;8.52;;;6.47;;
39022;SDS011;25908;51.984;5.928;2023-05-07T13:46:51;7.05;;;6.15;;
39022;SDS011;25908;51.984;5.928;2023-05-07T13:49:17;8.80;;;6.80;;
39022;SDS011;25908;51.984;5.928;2023-05-07T13:51:42;8.02;;;6.30;;
39022;SDS011;25908;51.984;5.928;2023-05-07T13:54:08;8.02;;;6.65;;
39022;SDS011;25908;51.984;5.928;2023-05-07T13:56:33;7.75;;;5.90;;
39022;SDS011;25908;51.984;5.928;2023-05-07T13:58:59;7.50;;;6.00;;
39022;SDS011;25908;51.984;5.928;2023-05-07T14:01:25;7.63;;;5.53;;
39022;SDS011;25908;51.984;5.928;2023-05-07T14:03:50;6.53;;;5.28;;
39022;SDS011;25908;51.984;5.928;2023-05-07T14:06:16;8.95;;;5.53;;
39022;SDS011;25908;51.984;5.928;2023-05-07T14:08:41;5.95;;;4.35;;
39022;SDS011;25908;51.984;5.928;2023-05-07T14:11:07;6.95;;;5.35;;
39022;SDS011;25908;51.984;5.928;2023-05-07T14:13:32;8.27;;;5.93;;
39022;SDS011;25908;51.984;5.928;2023-05-07T14:15:59;7.45;;;5.68;;
39022;SDS011;25908;51.984;5.928;2023-05-07T14:18:25;8.93;;;6.00;;
39022;SDS011;25908;51.984;5.928;2023-05-07T14:20:51;8.30;;;5.82;;
39022;SDS011;25908;51.984;5.928;2023-05-07T14:23:17;8.27;;;6.28;;
39022;SDS011;25908;51.984;5.928;2023-05-07T14:25:44;7.57;;;5.97;;
39022;SDS011;25908;51.984;5.928;2023-05-07T14:28:12;7.45;;;6.13;;
39022;SDS011;25908;51.984;5.928;2023-05-07T14:30:38;8.25;;;6.20;;
39022;SDS011;25908;51.984;5.928;2023-05-07T14:33:03;8.50;;;7.10;;
39022;SDS011;25908;51.984;5.928;2023-05-07T14:35:29;7.78;;;6.70;;
39022;SDS011;25908;51.984;5.928;2023-05-07T14:37:54;8.45;;;6.28;;
39022;SDS011;25908;51.984;5.928;2023-05-07T14:40:23;8.60;;;6.72;;
39022;SDS011;25908;51.984;5.928;2023-05-07T14:42:48;8.50;;;6.30;;
39022;SDS011;25908;51.984;5.928;2023-05-07T14:45:14;8.40;;;6.40;;
39022;SDS011;25908;51.984;5.928;2023-05-07T14:47:40;6.72;;;5.57;;
39022;SDS011;25908;51.984;5.928;2023-05-07T14:50:05;5.45;;;4.32;;